PRIVATE WETTERSTATION BILLIGHEIM-ALLFELD                       ZURCK
Wetterdaten: Dienstag, 10.05.2022
Datum Zeit Temp. A. Temp. A. min Temp. A. max Feuchte A. Luftdruck Regen Wind Richtung Richtung Sonnenschein ET Solar Taupunkt Windchill Windben Empfang
10.05.2022 00:00 12,9 C 12,9 C 13,1 C 83 % 1021,2 hPa 0,0 l/m 0,0 km/h (0 Bft) N 0 0 min 0,025 mm 0 W/m 10,1 C 12,9 C 0,0 km/h (0 Bft) 100 %
10.05.2022 00:10 12,6 C 12,6 C 12,9 C 84 % 1021,2 hPa 0,0 l/m 0,0 km/h (0 Bft) O-NO 67 0 min 0,000 mm 0 W/m 10,0 C 12,6 C 4,8 km/h (1 Bft) 99 %
10.05.2022 00:20 12,3 C 12,3 C 12,6 C 85 % 1021,2 hPa 0,0 l/m 0,0 km/h (0 Bft) N 0 0 min 0,000 mm 0 W/m 9,9 C 12,3 C 0,0 km/h (0 Bft) 99 %
10.05.2022 00:30 12,2 C 12,2 C 12,3 C 86 % 1021,2 hPa 0,0 l/m 0,0 km/h (0 Bft) O-NO 67 0 min 0,000 mm 0 W/m 9,9 C 12,2 C 1,6 km/h (1 Bft) 100 %
10.05.2022 00:40 12,1 C 12,1 C 12,2 C 86 % 1021,1 hPa 0,0 l/m 0,0 km/h (0 Bft) N 0 0 min 0,000 mm 0 W/m 9,8 C 12,1 C 0,0 km/h (0 Bft) 100 %
10.05.2022 00:50 11,9 C 11,9 C 12,1 C 86 % 1021,2 hPa 0,0 l/m 0,0 km/h (0 Bft) O-NO 67 0 min 0,000 mm 0 W/m 9,6 C 11,9 C 1,6 km/h (1 Bft) 100 %
10.05.2022 01:00 11,7 C 11,7 C 11,9 C 87 % 1021,0 hPa 0,0 l/m 0,0 km/h (0 Bft) O-NO 67 0 min 0,000 mm 0 W/m 9,6 C 11,7 C 4,8 km/h (1 Bft) 89 %
10.05.2022 01:10 11,6 C 11,6 C 11,7 C 87 % 1021,1 hPa 0,0 l/m 1,6 km/h (1 Bft) NO 45 0 min 0,000 mm 0 W/m 9,5 C 11,6 C 4,8 km/h (1 Bft) 100 %
10.05.2022 01:20 11,4 C 11,3 C 11,6 C 88 % 1021,1 hPa 0,0 l/m 1,6 km/h (1 Bft) N-NO 22 0 min 0,000 mm 0 W/m 9,5 C 11,4 C 4,8 km/h (1 Bft) 100 %
10.05.2022 01:30 11,2 C 11,2 C 11,3 C 88 % 1021,1 hPa 0,0 l/m 1,6 km/h (1 Bft) N-NO 22 0 min 0,000 mm 0 W/m 9,3 C 11,2 C 6,4 km/h (2 Bft) 98 %
10.05.2022 01:40 11,1 C 11,1 C 11,2 C 89 % 1021,1 hPa 0,0 l/m 1,6 km/h (1 Bft) N-NO 22 0 min 0,000 mm 0 W/m 9,4 C 11,1 C 4,8 km/h (1 Bft) 100 %
10.05.2022 01:50 11,0 C 11,0 C 11,1 C 88 % 1021,0 hPa 0,0 l/m 1,6 km/h (1 Bft) N 360 0 min 0,000 mm 0 W/m 9,1 C 11,0 C 4,8 km/h (1 Bft) 100 %
10.05.2022 02:00 10,9 C 10,9 C 11,0 C 89 % 1021,0 hPa 0,0 l/m 0,0 km/h (0 Bft) N 0 0 min 0,000 mm 0 W/m 9,2 C 10,9 C 0,0 km/h (0 Bft) 100 %
10.05.2022 02:10 10,9 C 10,9 C 10,9 C 89 % 1020,9 hPa 0,0 l/m 0,0 km/h (0 Bft) N 0 0 min 0,000 mm 0 W/m 9,2 C 10,9 C 0,0 km/h (0 Bft) 100 %
10.05.2022 02:20 10,8 C 10,8 C 10,9 C 89 % 1020,9 hPa 0,0 l/m 0,0 km/h (0 Bft) N 360 0 min 0,000 mm 0 W/m 9,1 C 10,8 C 1,6 km/h (1 Bft) 100 %
10.05.2022 02:30 10,7 C 10,7 C 10,8 C 89 % 1020,9 hPa 0,0 l/m 0,0 km/h (0 Bft) N 0 0 min 0,000 mm 0 W/m 9,0 C 10,7 C 0,0 km/h (0 Bft) 100 %
10.05.2022 02:40 10,5 C 10,5 C 10,7 C 89 % 1020,8 hPa 0,0 l/m 0,0 km/h (0 Bft) N 0 0 min 0,000 mm 0 W/m 8,8 C 10,5 C 0,0 km/h (0 Bft) 100 %
10.05.2022 02:50 10,4 C 10,4 C 10,5 C 89 % 1020,8 hPa 0,0 l/m 0,0 km/h (0 Bft) N 0 0 min 0,000 mm 0 W/m 8,7 C 10,4 C 0,0 km/h (0 Bft) 99 %
10.05.2022 03:00 10,2 C 10,2 C 10,4 C 89 % 1020,7 hPa 0,0 l/m 0,0 km/h (0 Bft) N 0 0 min 0,000 mm 0 W/m 8,5 C 10,2 C 0,0 km/h (0 Bft) 99 %
10.05.2022 03:10 10,1 C 10,1 C 10,2 C 90 % 1020,6 hPa 0,0 l/m 0,0 km/h (0 Bft) N 0 0 min 0,000 mm 0 W/m 8,5 C 10,1 C 0,0 km/h (0 Bft) 100 %
10.05.2022 03:20 9,9 C 9,9 C 10,1 C 90 % 1020,4 hPa 0,0 l/m 0,0 km/h (0 Bft) N 0 0 min 0,000 mm 0 W/m 8,3 C 9,9 C 0,0 km/h (0 Bft) 100 %
10.05.2022 03:30 9,8 C 9,8 C 9,9 C 90 % 1020,4 hPa 0,0 l/m 0,0 km/h (0 Bft) N 0 0 min 0,000 mm 0 W/m 8,2 C 9,8 C 0,0 km/h (0 Bft) 100 %
10.05.2022 03:40 9,7 C 9,7 C 9,8 C 90 % 1020,2 hPa 0,0 l/m 0,0 km/h (0 Bft) N 0 0 min 0,000 mm 0 W/m 8,1 C 9,7 C 0,0 km/h (0 Bft) 100 %
10.05.2022 03:50 9,6 C 9,6 C 9,7 C 90 % 1020,2 hPa 0,0 l/m 0,0 km/h (0 Bft) N 0 0 min 0,000 mm 0 W/m 8,0 C 9,6 C 0,0 km/h (0 Bft) 99 %
10.05.2022 04:00 9,4 C 9,4 C 9,6 C 94 % 1020,3 hPa 0,0 l/m 0,0 km/h (0 Bft) N 0 0 min 0,000 mm 0 W/m 8,5 C 9,4 C 0,0 km/h (0 Bft) 100 %
10.05.2022 04:10 9,3 C 9,3 C 9,4 C 90 % 1020,3 hPa 0,0 l/m 0,0 km/h (0 Bft) N 0 0 min 0,000 mm 0 W/m 7,7 C 9,3 C 0,0 km/h (0 Bft) 100 %
10.05.2022 04:20 9,2 C 9,2 C 9,3 C 91 % 1020,3 hPa 0,0 l/m 0,0 km/h (0 Bft) N 0 0 min 0,000 mm 0 W/m 7,8 C 9,2 C 0,0 km/h (0 Bft) 100 %
10.05.2022 04:30 9,1 C 9,1 C 9,2 C 91 % 1020,3 hPa 0,0 l/m 0,0 km/h (0 Bft) N 0 0 min 0,000 mm 0 W/m 7,7 C 9,1 C 0,0 km/h (0 Bft) 100 %
10.05.2022 04:40 9,0 C 9,0 C 9,1 C 91 % 1020,2 hPa 0,0 l/m 0,0 km/h (0 Bft) N 360 0 min 0,000 mm 0 W/m 7,6 C 9,0 C 1,6 km/h (1 Bft) 99 %
10.05.2022 04:50 8,9 C 8,9 C 9,0 C 91 % 1020,1 hPa 0,0 l/m 0,0 km/h (0 Bft) N 0 0 min 0,000 mm 0 W/m 7,5 C 8,9 C 0,0 km/h (0 Bft) 100 %
10.05.2022 05:00 8,9 C 8,8 C 8,9 C 91 % 1019,9 hPa 0,0 l/m 0,0 km/h (0 Bft) N 0 0 min 0,000 mm 0 W/m 7,5 C 8,9 C 0,0 km/h (0 Bft) 100 %
10.05.2022 05:10 8,8 C 8,8 C 8,9 C 91 % 1020,0 hPa 0,0 l/m 0,0 km/h (0 Bft) N 0 0 min 0,000 mm 0 W/m 7,4 C 8,8 C 0,0 km/h (0 Bft) 99 %
10.05.2022 05:20 8,7 C 8,7 C 8,8 C 91 % 1020,0 hPa 0,0 l/m 0,0 km/h (0 Bft) N 0 0 min 0,000 mm 0 W/m 7,3 C 8,7 C 0,0 km/h (0 Bft) 99 %
10.05.2022 05:30 8,6 C 8,6 C 8,7 C 91 % 1020,0 hPa 0,0 l/m 0,0 km/h (0 Bft) N 360 0 min 0,000 mm 0 W/m 7,2 C 8,6 C 3,2 km/h (1 Bft) 100 %
10.05.2022 05:40 8,5 C 8,5 C 8,6 C 91 % 1020,1 hPa 0,0 l/m 0,0 km/h (0 Bft) N 360 0 min 0,000 mm 0 W/m 7,1 C 8,5 C 3,2 km/h (1 Bft) 100 %
10.05.2022 05:50 8,4 C 8,4 C 8,5 C 91 % 1020,1 hPa 0,0 l/m 0,0 km/h (0 Bft) N 0 0 min 0,000 mm 0 W/m 7,0 C 8,4 C 0,0 km/h (0 Bft) 100 %
10.05.2022 06:00 8,3 C 8,3 C 8,4 C 91 % 1020,0 hPa 0,0 l/m 0,0 km/h (0 Bft) N 0 0 min 0,000 mm 9 W/m 6,9 C 8,3 C 0,0 km/h (0 Bft) 100 %
10.05.2022 06:10 8,2 C 8,2 C 8,3 C 91 % 1020,0 hPa 0,0 l/m 0,0 km/h (0 Bft) N 0 0 min 0,000 mm 16 W/m 6,8 C 8,2 C 0,0 km/h (0 Bft) 99 %
10.05.2022 06:20 8,3 C 8,2 C 8,3 C 91 % 1020,0 hPa 0,0 l/m 0,0 km/h (0 Bft) N 0 0 min 0,000 mm 25 W/m 6,9 C 8,3 C 0,0 km/h (0 Bft) 100 %
10.05.2022 06:30 8,3 C 8,2 C 8,3 C 91 % 1019,9 hPa 0,0 l/m 0,0 km/h (0 Bft) N 0 0 min 0,000 mm 32 W/m 6,9 C 8,3 C 0,0 km/h (0 Bft) 100 %
10.05.2022 06:40 8,3 C 8,3 C 8,3 C 91 % 1019,9 hPa 0,0 l/m 0,0 km/h (0 Bft) N 0 0 min 0,000 mm 37 W/m 6,9 C 8,3 C 0,0 km/h (0 Bft) 100 %
10.05.2022 06:50 8,4 C 8,3 C 8,4 C 91 % 1020,1 hPa 0,0 l/m 0,0 km/h (0 Bft) N 360 0 min 0,000 mm 42 W/m 7,0 C 8,4 C 1,6 km/h (1 Bft) 90 %
10.05.2022 07:00 8,6 C 8,4 C 8,6 C 91 % 1020,2 hPa 0,0 l/m 1,6 km/h (1 Bft) N 360 0 min 0,025 mm 51 W/m 7,2 C 8,6 C 6,4 km/h (2 Bft) 100 %
10.05.2022 07:10 8,8 C 8,6 C 8,8 C 91 % 1020,3 hPa 0,0 l/m 0,0 km/h (0 Bft) N 360 0 min 0,000 mm 53 W/m 7,4 C 8,8 C 3,2 km/h (1 Bft) 100 %
10.05.2022 07:20 9,0 C 8,8 C 9,0 C 91 % 1020,5 hPa 0,0 l/m 1,6 km/h (1 Bft) N 360 0 min 0,000 mm 56 W/m 7,6 C 9,0 C 4,8 km/h (1 Bft) 100 %
10.05.2022 07:30 9,2 C 9,0 C 9,2 C 91 % 1020,6 hPa 0,0 l/m 1,6 km/h (1 Bft) N 360 0 min 0,000 mm 62 W/m 7,8 C 9,2 C 3,2 km/h (1 Bft) 100 %
10.05.2022 07:40 9,4 C 9,2 C 9,4 C 90 % 1020,4 hPa 0,0 l/m 0,0 km/h (0 Bft) N 360 0 min 0,000 mm 74 W/m 7,8 C 9,4 C 1,6 km/h (1 Bft) 100 %
10.05.2022 07:50 9,8 C 9,5 C 9,8 C 90 % 1020,4 hPa 0,0 l/m 0,0 km/h (0 Bft) N 0 0 min 0,000 mm 90 W/m 8,2 C 9,8 C 0,0 km/h (0 Bft) 100 %
10.05.2022 08:00 10,2 C 9,8 C 10,2 C 90 % 1020,4 hPa 0,0 l/m 0,0 km/h (0 Bft) N 0 0 min 0,025 mm 105 W/m 8,6 C 10,2 C 0,0 km/h (0 Bft) 99 %
10.05.2022 08:10 10,8 C 10,2 C 10,8 C 90 % 1020,3 hPa 0,0 l/m 0,0 km/h (0 Bft) N 0 0 min 0,000 mm 116 W/m 9,2 C 10,8 C 0,0 km/h (0 Bft) 100 %
10.05.2022 08:20 11,4 C 10,8 C 11,4 C 90 % 1020,3 hPa 0,0 l/m 0,0 km/h (0 Bft) N 0 10 min 0,000 mm 158 W/m 9,8 C 11,4 C 0,0 km/h (0 Bft) 98 %
10.05.2022 08:30 12,1 C 11,4 C 12,1 C 90 % 1020,3 hPa 0,0 l/m 0,0 km/h (0 Bft) N 0 10 min 0,000 mm 359 W/m 10,5 C 12,1 C 0,0 km/h (0 Bft) 97 %
10.05.2022 08:40 13,1 C 12,1 C 13,1 C 90 % 1020,2 hPa 0,0 l/m 0,0 km/h (0 Bft) N 0 10 min 0,000 mm 346 W/m 11,5 C 13,1 C 0,0 km/h (0 Bft) 97 %
10.05.2022 08:50 14,2 C 13,1 C 14,2 C 91 % 1020,2 hPa 0,0 l/m 0,0 km/h (0 Bft) N 0 10 min 0,000 mm 350 W/m 12,8 C 14,2 C 0,0 km/h (0 Bft) 98 %
10.05.2022 09:00 15,1 C 14,2 C 15,1 C 88 % 1020,3 hPa 0,0 l/m 0,0 km/h (0 Bft) N 0 10 min 0,127 mm 369 W/m 13,1 C 15,1 C 0,0 km/h (0 Bft) 98 %
10.05.2022 09:10 15,9 C 15,1 C 15,9 C 84 % 1020,2 hPa 0,0 l/m 0,0 km/h (0 Bft) N 0 10 min 0,000 mm 443 W/m 13,2 C 15,9 C 0,0 km/h (0 Bft) 98 %
10.05.2022 09:20 16,5 C 15,9 C 16,5 C 81 % 1020,2 hPa 0,0 l/m 0,0 km/h (0 Bft) N 360 10 min 0,000 mm 483 W/m 13,2 C 16,5 C 1,6 km/h (1 Bft) 97 %
10.05.2022 09:30 17,1 C 16,5 C 17,1 C 78 % 1020,2 hPa 0,0 l/m 0,0 km/h (0 Bft) N-NW 337 10 min 0,000 mm 524 W/m 13,2 C 17,1 C 1,6 km/h (1 Bft) 98 %
10.05.2022 09:40 17,7 C 17,1 C 17,7 C 76 % 1020,2 hPa 0,0 l/m 0,0 km/h (0 Bft) S-SW 202 10 min 0,000 mm 513 W/m 13,4 C 17,7 C 1,6 km/h (1 Bft) 98 %
10.05.2022 09:50 18,4 C 17,7 C 18,4 C 72 % 1020,1 hPa 0,0 l/m 0,0 km/h (0 Bft) S-SW 202 10 min 0,000 mm 584 W/m 13,3 C 18,4 C 1,6 km/h (1 Bft) 97 %
10.05.2022 10:00 18,7 C 18,4 C 18,7 C 72 % 1020,1 hPa 0,0 l/m 0,0 km/h (0 Bft) S-SW 202 10 min 0,279 mm 642 W/m 13,5 C 18,7 C 1,6 km/h (1 Bft) 98 %
10.05.2022 10:10 19,2 C 18,7 C 19,2 C 70 % 1020,1 hPa 0,0 l/m 0,0 km/h (0 Bft) S-SW 202 10 min 0,000 mm 657 W/m 13,6 C 19,2 C 1,6 km/h (1 Bft) 98 %
10.05.2022 10:20 19,8 C 19,2 C 19,8 C 70 % 1020,0 hPa 0,0 l/m 3,2 km/h (1 Bft) S-SW 202 10 min 0,000 mm 715 W/m 14,2 C 19,8 C 11,3 km/h (2 Bft) 98 %
10.05.2022 10:30 20,1 C 19,8 C 20,1 C 68 % 1019,9 hPa 0,0 l/m 4,8 km/h (1 Bft) S 180 10 min 0,000 mm 752 W/m 14,0 C 20,1 C 9,7 km/h (2 Bft) 97 %
10.05.2022 10:40 20,4 C 20,1 C 20,4 C 67 % 1020,0 hPa 0,0 l/m 4,8 km/h (1 Bft) S 180 10 min 0,000 mm 742 W/m 14,1 C 20,4 C 11,3 km/h (2 Bft) 97 %
10.05.2022 10:50 20,3 C 20,3 C 20,4 C 67 % 1019,8 hPa 0,0 l/m 6,4 km/h (2 Bft) S-SW 202 10 min 0,000 mm 735 W/m 14,0 C 20,3 C 14,5 km/h (3 Bft) 98 %
10.05.2022 11:00 20,6 C 20,3 C 20,6 C 67 % 1019,8 hPa 0,0 l/m 4,8 km/h (1 Bft) S-SW 202 10 min 0,406 mm 722 W/m 14,3 C 20,6 C 9,7 km/h (2 Bft) 98 %
10.05.2022 11:10 21,0 C 20,6 C 21,0 C 66 % 1019,8 hPa 0,0 l/m 4,8 km/h (1 Bft) S 180 10 min 0,000 mm 810 W/m 14,4 C 21,0 C 14,5 km/h (3 Bft) 97 %
10.05.2022 11:20 21,3 C 21,0 C 21,3 C 63 % 1019,8 hPa 0,0 l/m 3,2 km/h (1 Bft) S-SO 157 10 min 0,000 mm 821 W/m 14,0 C 21,3 C 9,7 km/h (2 Bft) 97 %
10.05.2022 11:30 21,7 C 21,3 C 21,7 C 63 % 1019,8 hPa 0,0 l/m 1,6 km/h (1 Bft) S-SW 202 10 min 0,000 mm 835 W/m 14,3 C 21,7 C 8,0 km/h (2 Bft) 98 %
10.05.2022 11:40 22,1 C 21,7 C 22,1 C 63 % 1019,7 hPa 0,0 l/m 1,6 km/h (1 Bft) SW 225 10 min 0,000 mm 872 W/m 14,7 C 22,1 C 11,3 km/h (2 Bft) 97 %
10.05.2022 11:50 22,3 C 22,1 C 22,3 C 61 % 1019,7 hPa 0,0 l/m 1,6 km/h (1 Bft) S-SW 202 10 min 0,000 mm 886 W/m 14,4 C 22,3 C 6,4 km/h (2 Bft) 98 %
10.05.2022 12:00 22,3 C 22,2 C 22,3 C 63 % 1019,6 hPa 0,0 l/m 1,6 km/h (1 Bft) S-SW 202 10 min 0,457 mm 909 W/m 14,9 C 22,3 C 11,3 km/h (2 Bft) 97 %
10.05.2022 12:10 22,6 C 22,3 C 22,6 C 60 % 1019,4 hPa 0,0 l/m 1,6 km/h (1 Bft) S-SW 202 10 min 0,000 mm 928 W/m 14,4 C 22,6 C 12,9 km/h (3 Bft) 97 %
10.05.2022 12:20 22,7 C 22,6 C 22,7 C 60 % 1019,4 hPa 0,0 l/m 1,6 km/h (1 Bft) S-SW 202 10 min 0,000 mm 793 W/m 14,5 C 22,7 C 14,5 km/h (3 Bft) 98 %
10.05.2022 12:30 22,8 C 22,7 C 22,8 C 59 % 1019,3 hPa 0,0 l/m 1,6 km/h (1 Bft) S-SW 202 10 min 0,000 mm 722 W/m 14,4 C 22,8 C 11,3 km/h (2 Bft) 97 %
10.05.2022 12:40 23,1 C 22,8 C 23,1 C 57 % 1019,3 hPa 0,0 l/m 1,6 km/h (1 Bft) SW 225 10 min 0,000 mm 877 W/m 14,1 C 23,1 C 9,7 km/h (2 Bft) 98 %
10.05.2022 12:50 23,6 C 23,1 C 23,6 C 56 % 1019,2 hPa 0,0 l/m 1,6 km/h (1 Bft) SW 225 10 min 0,000 mm 977 W/m 14,3 C 23,6 C 8,0 km/h (2 Bft) 98 %
10.05.2022 13:00 24,2 C 23,6 C 24,2 C 52 % 1019,1 hPa 0,0 l/m 1,6 km/h (1 Bft) S-SW 202 10 min 0,508 mm 1009 W/m 13,7 C 24,2 C 16,1 km/h (3 Bft) 97 %
10.05.2022 13:10 24,1 C 24,1 C 24,2 C 53 % 1018,9 hPa 0,0 l/m 4,8 km/h (1 Bft) S-SW 202 10 min 0,000 mm 907 W/m 13,9 C 24,1 C 17,7 km/h (3 Bft) 97 %
10.05.2022 13:30 23,6 C 23,6 C 24,2 C 52 % 1018,8 hPa 0,0 l/m 0,0 km/h (0 Bft) S-SW 207 20 min 0,000 mm 517 W/m 13,2 C 23,6 C 0,0 km/h (0 Bft) 100 %
10.05.2022 13:40 23,9 C 23,6 C 23,9 C 50 % 1018,6 hPa 0,0 l/m 1,8 km/h (1 Bft) W 277 10 min 0,000 mm 751 W/m 12,8 C 23,9 C 9,7 km/h (2 Bft) 99 %
10.05.2022 13:50 24,1 C 23,9 C 24,1 C 52 % 1018,7 hPa 0,0 l/m 0,7 km/h (0 Bft) S-SW 203 10 min 0,000 mm 780 W/m 13,6 C 24,1 C 9,7 km/h (2 Bft) 100 %
10.05.2022 14:00 24,3 C 24,1 C 24,3 C 53 % 1018,6 hPa 0,0 l/m 2,3 km/h (1 Bft) SW 233 10 min 0,409 mm 763 W/m 14,1 C 24,3 C 14,5 km/h (3 Bft) 99 %
10.05.2022 14:10 24,2 C 24,2 C 24,4 C 50 % 1018,4 hPa 0,0 l/m 2,3 km/h (1 Bft) S 170 10 min 0,000 mm 830 W/m 13,1 C 24,2 C 11,3 km/h (2 Bft) 100 %
10.05.2022 14:20 24,2 C 24,2 C 24,2 C 49 % 1018,3 hPa 0,0 l/m 2,2 km/h (1 Bft) SW 219 10 min 0,000 mm 682 W/m 12,8 C 24,2 C 12,9 km/h (3 Bft) 100 %
10.05.2022 14:30 24,6 C 24,2 C 24,6 C 50 % 1018,0 hPa 0,0 l/m 0,3 km/h (0 Bft) S 170 10 min 0,000 mm 689 W/m 13,5 C 24,6 C 4,8 km/h (1 Bft) 100 %
10.05.2022 14:40 24,8 C 24,6 C 24,8 C 51 % 1018,0 hPa 0,0 l/m 3,6 km/h (1 Bft) SW 227 10 min 0,000 mm 823 W/m 14,0 C 24,8 C 16,1 km/h (3 Bft) 100 %
10.05.2022 14:50 24,6 C 24,6 C 24,8 C 51 % 1017,9 hPa 0,0 l/m 1,4 km/h (1 Bft) S-SW 202 10 min 0,000 mm 283 W/m 13,8 C 24,6 C 16,1 km/h (3 Bft) 100 %
10.05.2022 15:00 24,4 C 24,4 C 24,6 C 52 % 1017,7 hPa 0,0 l/m 0,6 km/h (0 Bft) W-SW 251 10 min 0,381 mm 323 W/m 13,9 C 24,4 C 8,0 km/h (2 Bft) 100 %
10.05.2022 15:10 24,3 C 24,3 C 24,4 C 52 % 1017,6 hPa 0,0 l/m 2,0 km/h (1 Bft) S 185 10 min 0,000 mm 603 W/m 13,8 C 24,3 C 16,1 km/h (3 Bft) 100 %
10.05.2022 15:20 24,3 C 24,2 C 24,3 C 52 % 1017,5 hPa 0,0 l/m 2,6 km/h (1 Bft) S-SW 209 10 min 0,000 mm 566 W/m 13,8 C 24,3 C 11,3 km/h (2 Bft) 100 %
10.05.2022 15:30 24,5 C 24,3 C 24,5 C 53 % 1017,5 hPa 0,0 l/m 1,6 km/h (1 Bft) S-SW 194 10 min 0,000 mm 649 W/m 14,3 C 24,5 C 16,1 km/h (3 Bft) 100 %
10.05.2022 15:40 24,4 C 24,4 C 24,6 C 52 % 1017,4 hPa 0,0 l/m 1,8 km/h (1 Bft) S 173 10 min 0,000 mm 501 W/m 13,9 C 24,4 C 9,7 km/h (2 Bft) 100 %
10.05.2022 15:50 24,3 C 24,3 C 24,4 C 49 % 1017,4 hPa 0,0 l/m 5,0 km/h (1 Bft) SW 232 10 min 0,000 mm 519 W/m 12,9 C 24,3 C 19,3 km/h (3 Bft) 100 %
10.05.2022 16:00 24,4 C 24,3 C 24,5 C 51 % 1017,2 hPa 0,0 l/m 3,0 km/h (1 Bft) S-SW 196 10 min 0,355 mm 448 W/m 13,6 C 24,4 C 12,9 km/h (3 Bft) 100 %
10.05.2022 16:10 24,2 C 24,2 C 24,4 C 51 % 1017,1 hPa 0,0 l/m 1,3 km/h (1 Bft) S-SW 198 10 min 0,000 mm 355 W/m 13,4 C 24,2 C 9,7 km/h (2 Bft) 100 %
10.05.2022 16:20 24,0 C 24,0 C 24,2 C 51 % 1017,0 hPa 0,0 l/m 0,8 km/h (0 Bft) S 188 10 min 0,000 mm 330 W/m 13,2 C 24,0 C 6,4 km/h (2 Bft) 100 %
10.05.2022 16:30 23,9 C 23,9 C 24,0 C 52 % 1016,9 hPa 0,0 l/m 1,9 km/h (1 Bft) S-SW 206 10 min 0,000 mm 308 W/m 13,4 C 23,9 C 11,3 km/h (2 Bft) 100 %
10.05.2022 16:40 23,7 C 23,7 C 23,9 C 54 % 1016,8 hPa 0,0 l/m 2,0 km/h (1 Bft) S 183 10 min 0,000 mm 306 W/m 13,8 C 23,7 C 11,3 km/h (2 Bft) 100 %
10.05.2022 16:50 23,6 C 23,6 C 23,7 C 53 % 1016,7 hPa 0,0 l/m 1,2 km/h (1 Bft) S-SW 196 10 min 0,000 mm 327 W/m 13,4 C 23,6 C 9,7 km/h (2 Bft) 100 %
10.05.2022 17:00 23,7 C 23,6 C 23,7 C 56 % 1016,7 hPa 0,0 l/m 2,4 km/h (1 Bft) S-SW 198 10 min 0,229 mm 313 W/m 14,4 C 23,7 C 9,7 km/h (2 Bft) 100 %
10.05.2022 17:10 23,8 C 23,7 C 23,8 C 54 % 1016,6 hPa 0,0 l/m 0,3 km/h (0 Bft) S-SW 208 10 min 0,000 mm 276 W/m 13,9 C 23,8 C 4,8 km/h (1 Bft) 100 %
10.05.2022 17:20 23,8 C 23,8 C 23,8 C 54 % 1016,5 hPa 0,0 l/m 1,4 km/h (1 Bft) S-SW 201 10 min 0,000 mm 290 W/m 13,9 C 23,8 C 17,7 km/h (3 Bft) 100 %
10.05.2022 17:30 23,8 C 23,8 C 23,8 C 52 % 1016,5 hPa 0,0 l/m 2,3 km/h (1 Bft) SW 214 10 min 0,000 mm 237 W/m 13,3 C 23,8 C 11,3 km/h (2 Bft) 100 %
10.05.2022 17:40 23,7 C 23,7 C 23,8 C 51 % 1016,3 hPa 0,0 l/m 0,5 km/h (0 Bft) S-SW 211 10 min 0,000 mm 192 W/m 13,0 C 23,7 C 8,0 km/h (2 Bft) 100 %
10.05.2022 17:50 23,4 C 23,4 C 23,7 C 52 % 1016,3 hPa 0,0 l/m 0,4 km/h (0 Bft) SW 217 10 min 0,000 mm 155 W/m 13,0 C 23,4 C 6,4 km/h (2 Bft) 100 %
10.05.2022 18:00 23,3 C 23,2 C 23,4 C 52 % 1016,2 hPa 0,0 l/m 1,1 km/h (1 Bft) S-SW 212 0 min 0,152 mm 144 W/m 12,9 C 23,3 C 9,7 km/h (2 Bft) 100 %
10.05.2022 18:10 23,1 C 23,1 C 23,3 C 54 % 1016,1 hPa 0,0 l/m 1,8 km/h (1 Bft) S-SW 211 0 min 0,000 mm 132 W/m 13,3 C 23,1 C 11,3 km/h (2 Bft) 100 %
10.05.2022 18:20 22,9 C 22,9 C 23,1 C 53 % 1016,0 hPa 0,0 l/m 1,6 km/h (1 Bft) S-SW 202 0 min 0,000 mm 148 W/m 12,8 C 22,9 C 9,7 km/h (2 Bft) 100 %
10.05.2022 18:30 22,9 C 22,9 C 22,9 C 55 % 1015,9 hPa 0,0 l/m 0,1 km/h (0 Bft) S-SW 204 10 min 0,000 mm 206 W/m 13,4 C 22,9 C 6,4 km/h (2 Bft) 100 %
10.05.2022 18:40 23,1 C 22,9 C 23,1 C 57 % 1015,9 hPa 0,0 l/m 0,3 km/h (0 Bft) S-SW 196 10 min 0,000 mm 185 W/m 14,1 C 23,1 C 6,4 km/h (2 Bft) 100 %
10.05.2022 18:50 23,0 C 23,0 C 23,2 C 57 % 1015,7 hPa 0,0 l/m 0,2 km/h (0 Bft) S-SW 194 0 min 0,000 mm 123 W/m 14,0 C 23,0 C 4,8 km/h (1 Bft) 100 %
10.05.2022 19:00 22,7 C 22,7 C 23,0 C 57 % 1015,6 hPa 0,0 l/m 0,3 km/h (0 Bft) S-SW 193 0 min 0,102 mm 77 W/m 13,7 C 22,7 C 8,0 km/h (2 Bft) 99 %
10.05.2022 19:10 22,4 C 22,4 C 22,7 C 58 % 1015,5 hPa 0,0 l/m 0,3 km/h (0 Bft) S-SW 201 0 min 0,000 mm 74 W/m 13,7 C 22,4 C 6,4 km/h (2 Bft) 100 %
10.05.2022 19:20 22,3 C 22,3 C 22,4 C 59 % 1015,5 hPa 0,0 l/m 0,1 km/h (0 Bft) S-SW 194 0 min 0,000 mm 79 W/m 13,9 C 22,3 C 4,8 km/h (1 Bft) 100 %
10.05.2022 19:30 22,2 C 22,2 C 22,3 C 59 % 1015,5 hPa 0,0 l/m 0,5 km/h (0 Bft) S-SW 199 0 min 0,000 mm 62 W/m 13,8 C 22,2 C 6,4 km/h (2 Bft) 100 %
10.05.2022 19:40 22,0 C 22,0 C 22,2 C 61 % 1015,5 hPa 0,0 l/m 0,0 km/h (0 Bft) S-SW 194 0 min 0,000 mm 35 W/m 14,1 C 22,0 C 1,6 km/h (1 Bft) 100 %
10.05.2022 19:50 21,8 C 21,8 C 22,0 C 60 % 1015,6 hPa 0,0 l/m 0,1 km/h (0 Bft) S-SW 207 0 min 0,000 mm 26 W/m 13,7 C 21,8 C 6,4 km/h (2 Bft) 100 %
10.05.2022 20:00 21,7 C 21,7 C 21,8 C 60 % 1015,6 hPa 0,0 l/m 0,0 km/h (0 Bft) S-SW 205 0 min 0,051 mm 28 W/m 13,6 C 21,7 C 0,0 km/h (0 Bft) 100 %
10.05.2022 20:10 21,7 C 21,7 C 21,7 C 60 % 1015,6 hPa 0,0 l/m 0,0 km/h (0 Bft) S-SW 205 0 min 0,000 mm 32 W/m 13,6 C 21,7 C 0,0 km/h (0 Bft) 100 %
10.05.2022 20:20 21,5 C 21,5 C 21,7 C 61 % 1015,5 hPa 0,0 l/m 0,0 km/h (0 Bft) S-SW 205 0 min 0,000 mm 40 W/m 13,7 C 21,5 C 0,0 km/h (0 Bft) 100 %
10.05.2022 20:30 21,4 C 21,4 C 21,5 C 62 % 1015,5 hPa 0,0 l/m 0,0 km/h (0 Bft) S-SW 205 0 min 0,000 mm 33 W/m 13,8 C 21,4 C 0,0 km/h (0 Bft) 100 %
10.05.2022 20:40 21,2 C 21,2 C 21,4 C 62 % 1015,6 hPa 0,0 l/m 0,0 km/h (0 Bft) S-SW 205 0 min 0,000 mm 16 W/m 13,6 C 21,2 C 0,0 km/h (0 Bft) 100 %
10.05.2022 20:50 21,1 C 21,1 C 21,2 C 63 % 1015,6 hPa 0,0 l/m 0,0 km/h (0 Bft) S-SW 204 0 min 0,000 mm 0 W/m 13,8 C 21,1 C 0,0 km/h (0 Bft) 100 %
10.05.2022 21:00 20,9 C 20,9 C 21,1 C 63 % 1015,6 hPa 0,0 l/m 0,0 km/h (0 Bft) S-SW 202 0 min 0,025 mm 0 W/m 13,6 C 20,9 C 0,0 km/h (0 Bft) 100 %
10.05.2022 21:10 20,8 C 20,8 C 20,9 C 63 % 1015,7 hPa 0,0 l/m 0,0 km/h (0 Bft) N 0 0 min 0,000 mm 0 W/m 13,5 C 20,8 C 0,0 km/h (0 Bft) 99 %
10.05.2022 21:20 20,7 C 20,7 C 20,8 C 64 % 1015,7 hPa 0,0 l/m 0,0 km/h (0 Bft) N 0 0 min 0,000 mm 0 W/m 13,6 C 20,7 C 0,0 km/h (0 Bft) 98 %
10.05.2022 21:30 20,6 C 20,6 C 20,8 C 64 % 1015,8 hPa 0,0 l/m 0,0 km/h (0 Bft) N 0 0 min 0,000 mm 0 W/m 13,5 C 20,6 C 0,0 km/h (0 Bft) 97 %
10.05.2022 21:40 20,4 C 20,4 C 20,6 C 64 % 1015,7 hPa 0,0 l/m 0,0 km/h (0 Bft) N 0 0 min 0,000 mm 0 W/m 13,4 C 20,4 C 0,0 km/h (0 Bft) 97 %
10.05.2022 21:50 20,4 C 20,4 C 20,5 C 65 % 1015,7 hPa 0,0 l/m 0,0 km/h (0 Bft) N 0 0 min 0,000 mm 0 W/m 13,6 C 20,4 C 0,0 km/h (0 Bft) 98 %
10.05.2022 22:00 20,2 C 20,2 C 20,4 C 66 % 1015,8 hPa 0,0 l/m 0,0 km/h (0 Bft) N 0 0 min 0,025 mm 0 W/m 13,6 C 20,2 C 0,0 km/h (0 Bft) 98 %
10.05.2022 22:10 20,0 C 20,0 C 20,2 C 69 % 1015,9 hPa 0,0 l/m 0,0 km/h (0 Bft) N 0 0 min 0,000 mm 0 W/m 14,1 C 20,0 C 0,0 km/h (0 Bft) 98 %
10.05.2022 22:20 19,6 C 19,6 C 20,0 C 68 % 1015,9 hPa 0,0 l/m 0,0 km/h (0 Bft) N 0 0 min 0,000 mm 0 W/m 13,5 C 19,6 C 0,0 km/h (0 Bft) 97 %
10.05.2022 22:30 19,6 C 19,5 C 19,6 C 68 % 1015,8 hPa 0,0 l/m 0,0 km/h (0 Bft) S-SW 202 0 min 0,000 mm 0 W/m 13,5 C 19,6 C 1,6 km/h (1 Bft) 98 %
10.05.2022 22:40 19,7 C 19,6 C 19,7 C 67 % 1015,8 hPa 0,0 l/m 0,0 km/h (0 Bft) N 0 0 min 0,000 mm 0 W/m 13,4 C 19,7 C 0,0 km/h (0 Bft) 98 %
10.05.2022 22:50 19,5 C 19,5 C 19,7 C 68 % 1015,9 hPa 0,0 l/m 0,0 km/h (0 Bft) N 0 0 min 0,000 mm 0 W/m 13,4 C 19,5 C 0,0 km/h (0 Bft) 97 %
10.05.2022 23:00 19,3 C 19,3 C 19,5 C 69 % 1016,0 hPa 0,0 l/m 0,0 km/h (0 Bft) N 0 0 min 0,025 mm 0 W/m 13,5 C 19,3 C 0,0 km/h (0 Bft) 98 %
10.05.2022 23:10 19,1 C 19,1 C 19,3 C 70 % 1015,9 hPa 0,0 l/m 0,0 km/h (0 Bft) N 0 0 min 0,000 mm 0 W/m 13,5 C 19,1 C 0,0 km/h (0 Bft) 98 %
10.05.2022 23:20 18,8 C 18,8 C 19,1 C 71 % 1016,0 hPa 0,0 l/m 0,0 km/h (0 Bft) N 0 0 min 0,000 mm 0 W/m 13,4 C 18,8 C 0,0 km/h (0 Bft) 98 %
10.05.2022 23:30 18,4 C 18,4 C 18,8 C 72 % 1015,9 hPa 0,0 l/m 0,0 km/h (0 Bft) N 0 0 min 0,000 mm 0 W/m 13,3 C 18,4 C 0,0 km/h (0 Bft) 97 %
10.05.2022 23:40 18,1 C 18,1 C 18,4 C 73 % 1016,0 hPa 0,0 l/m 0,0 km/h (0 Bft) N 0 0 min 0,000 mm 0 W/m 13,2 C 18,1 C 0,0 km/h (0 Bft) 97 %
10.05.2022 23:50 17,7 C 17,7 C 18,1 C 74 % 1015,9 hPa 0,0 l/m 0,0 km/h (0 Bft) N 0 0 min 0,000 mm 0 W/m 13,0 C 17,7 C 0,0 km/h (0 Bft) 98 %
_ Min-Zeit 06:10 06:10 06:10 14:20 19:10 - 00:00 - - - - - 06:10 06:10 00:00 01:00
Minimum _ 8,2 C 8,2 C 8,3 C 49 % 1015,5 hPa - 0,0 km/h (0 Bft) - - - - - 6,8 C 8,2 C 0,0 km/h (0 Bft) 89 %
_ Max-Zeit 14:40 14:40 14:40 04:00 00:00 00:00 10:50 - - 13:30 13:00 13:00 12:00 14:40 15:50 00:30
Maximum _ 24,8 C 24,6 C 24,8 C 94 % 1021,2 hPa 0,0 l/m 6,4 km/h
S-SW (2 Bft)
- - 20 min 0,508 mm 1009 W/m 14,9 C 24,8 C 19,3 km/h
S-SW (3 Bft)
100 %
Durchschnitt _ 17,4 C 17,3 C 17,5 C 72 % 1018,6 hPa #0,0 l/m 0,8 km/h (0 Bft) S-SW - #10:00 h #3,606 mm 403 W/m 11,7 C 17,4 C 4,6 km/h (1 Bft) 99 %
PRIVATE WETTERSTATION BILLIGHEIM-ALLFELD - www.neckar-odenwald-wetter.de - Holger Sonntag